sensor_id;sensor_type;location;lat;lon;timestamp;P1;durP1;ratioP1;P2;durP2;ratioP2
7843;SDS011;3967;48.702;9.326;2024-02-21T00:01:32;7.50;;;3.70;;
7843;SDS011;3967;48.702;9.326;2024-02-21T00:03:59;6.50;;;3.80;;
7843;SDS011;3967;48.702;9.326;2024-02-21T00:06:26;8.53;;;4.17;;
7843;SDS011;3967;48.702;9.326;2024-02-21T00:08:52;8.13;;;3.90;;
7843;SDS011;3967;48.702;9.326;2024-02-21T00:11:19;7.47;;;3.97;;
7843;SDS011;3967;48.702;9.326;2024-02-21T00:13:46;6.40;;;3.90;;
7843;SDS011;3967;48.702;9.326;2024-02-21T00:16:13;9.07;;;4.30;;
7843;SDS011;3967;48.702;9.326;2024-02-21T00:18:42;10.33;;;4.17;;
7843;SDS011;3967;48.702;9.326;2024-02-21T00:21:09;6.80;;;3.40;;
7843;SDS011;3967;48.702;9.326;2024-02-21T00:23:41;8.33;;;3.20;;
7843;SDS011;3967;48.702;9.326;2024-02-21T00:26:08;9.33;;;3.17;;
7843;SDS011;3967;48.702;9.326;2024-02-21T00:28:34;7.80;;;3.67;;
7843;SDS011;3967;48.702;9.326;2024-02-21T00:31:01;8.37;;;3.30;;
7843;SDS011;3967;48.702;9.326;2024-02-21T00:33:28;10.23;;;3.47;;
7843;SDS011;3967;48.702;9.326;2024-02-21T00:35:55;8.23;;;3.20;;
7843;SDS011;3967;48.702;9.326;2024-02-21T00:38:22;9.57;;;3.57;;
7843;SDS011;3967;48.702;9.326;2024-02-21T00:40:48;13.17;;;3.40;;
7843;SDS011;3967;48.702;9.326;2024-02-21T00:43:15;7.50;;;3.47;;
7843;SDS011;3967;48.702;9.326;2024-02-21T00:45:42;6.73;;;2.80;;
7843;SDS011;3967;48.702;9.326;2024-02-21T00:48:09;9.63;;;4.00;;
7843;SDS011;3967;48.702;9.326;2024-02-21T00:50:36;8.90;;;2.87;;
7843;SDS011;3967;48.702;9.326;2024-02-21T00:53:04;7.67;;;3.27;;
7843;SDS011;3967;48.702;9.326;2024-02-21T00:55:31;6.33;;;3.13;;
7843;SDS011;3967;48.702;9.326;2024-02-21T00:57:57;7.03;;;3.70;;
7843;SDS011;3967;48.702;9.326;2024-02-21T01:00:25;6.30;;;3.43;;
7843;SDS011;3967;48.702;9.326;2024-02-21T01:02:51;8.93;;;3.40;;
7843;SDS011;3967;48.702;9.326;2024-02-21T01:05:19;7.13;;;3.40;;
7843;SDS011;3967;48.702;9.326;2024-02-21T01:07:46;7.00;;;2.90;;
7843;SDS011;3967;48.702;9.326;2024-02-21T01:10:13;8.47;;;3.17;;
7843;SDS011;3967;48.702;9.326;2024-02-21T01:12:40;13.27;;;3.30;;
7843;SDS011;3967;48.702;9.326;2024-02-21T01:15:06;6.80;;;3.30;;
7843;SDS011;3967;48.702;9.326;2024-02-21T01:17:33;6.47;;;3.00;;
7843;SDS011;3967;48.702;9.326;2024-02-21T01:20:00;8.73;;;3.10;;
7843;SDS011;3967;48.702;9.326;2024-02-21T01:22:27;7.87;;;2.87;;
7843;SDS011;3967;48.702;9.326;2024-02-21T01:24:55;8.03;;;3.07;;
7843;SDS011;3967;48.702;9.326;2024-02-21T01:27:21;6.60;;;3.07;;
7843;SDS011;3967;48.702;9.326;2024-02-21T01:29:48;7.73;;;2.83;;
7843;SDS011;3967;48.702;9.326;2024-02-21T01:32:16;7.77;;;3.20;;
7843;SDS011;3967;48.702;9.326;2024-02-21T01:34:43;7.97;;;3.63;;
7843;SDS011;3967;48.702;9.326;2024-02-21T01:37:09;6.37;;;2.90;;
7843;SDS011;3967;48.702;9.326;2024-02-21T01:39:36;7.17;;;3.13;;
7843;SDS011;3967;48.702;9.326;2024-02-21T01:42:03;4.93;;;2.77;;
7843;SDS011;3967;48.702;9.326;2024-02-21T01:44:31;7.00;;;3.43;;
7843;SDS011;3967;48.702;9.326;2024-02-21T01:46:58;7.63;;;2.73;;
7843;SDS011;3967;48.702;9.326;2024-02-21T01:49:25;6.67;;;2.83;;
7843;SDS011;3967;48.702;9.326;2024-02-21T01:51:52;5.27;;;2.63;;
7843;SDS011;3967;48.702;9.326;2024-02-21T01:54:19;6.77;;;2.40;;
7843;SDS011;3967;48.702;9.326;2024-02-21T01:56:46;5.80;;;2.67;;
7843;SDS011;3967;48.702;9.326;2024-02-21T01:59:15;6.10;;;2.43;;
7843;SDS011;3967;48.702;9.326;2024-02-21T02:01:43;10.20;;;3.17;;
7843;SDS011;3967;48.702;9.326;2024-02-21T02:04:12;6.20;;;2.57;;
7843;SDS011;3967;48.702;9.326;2024-02-21T02:06:40;7.20;;;2.90;;
7843;SDS011;3967;48.702;9.326;2024-02-21T02:09:08;7.30;;;2.53;;
7843;SDS011;3967;48.702;9.326;2024-02-21T02:11:34;8.27;;;2.63;;
7843;SDS011;3967;48.702;9.326;2024-02-21T02:14:02;7.33;;;2.63;;
7843;SDS011;3967;48.702;9.326;2024-02-21T02:16:29;7.13;;;3.27;;
7843;SDS011;3967;48.702;9.326;2024-02-21T02:18:56;4.40;;;2.43;;
7843;SDS011;3967;48.702;9.326;2024-02-21T02:21:24;5.80;;;2.73;;
7843;SDS011;3967;48.702;9.326;2024-02-21T02:23:56;4.93;;;3.10;;
7843;SDS011;3967;48.702;9.326;2024-02-21T02:26:23;6.90;;;2.20;;
7843;SDS011;3967;48.702;9.326;2024-02-21T02:28:50;6.23;;;2.43;;
7843;SDS011;3967;48.702;9.326;2024-02-21T02:31:17;6.77;;;3.23;;
7843;SDS011;3967;48.702;9.326;2024-02-21T02:33:43;5.00;;;3.10;;
7843;SDS011;3967;48.702;9.326;2024-02-21T02:36:10;3.83;;;2.50;;
7843;SDS011;3967;48.702;9.326;2024-02-21T02:38:37;7.80;;;2.57;;
7843;SDS011;3967;48.702;9.326;2024-02-21T02:41:04;6.53;;;2.70;;
7843;SDS011;3967;48.702;9.326;2024-02-21T02:43:31;7.27;;;2.27;;
7843;SDS011;3967;48.702;9.326;2024-02-21T02:45:58;6.77;;;2.30;;
7843;SDS011;3967;48.702;9.326;2024-02-21T02:48:25;7.03;;;2.27;;
7843;SDS011;3967;48.702;9.326;2024-02-21T02:50:51;5.70;;;2.47;;
7843;SDS011;3967;48.702;9.326;2024-02-21T02:53:18;5.70;;;2.83;;
7843;SDS011;3967;48.702;9.326;2024-02-21T02:55:45;8.93;;;3.13;;
7843;SDS011;3967;48.702;9.326;2024-02-21T02:58:12;5.60;;;2.17;;
7843;SDS011;3967;48.702;9.326;2024-02-21T03:00:39;6.07;;;2.33;;
7843;SDS011;3967;48.702;9.326;2024-02-21T03:03:06;6.53;;;2.43;;
7843;SDS011;3967;48.702;9.326;2024-02-21T03:05:34;7.83;;;2.10;;
7843;SDS011;3967;48.702;9.326;2024-02-21T03:08:01;8.77;;;2.87;;
7843;SDS011;3967;48.702;9.326;2024-02-21T03:10:28;4.47;;;2.23;;
7843;SDS011;3967;48.702;9.326;2024-02-21T03:12:55;6.20;;;3.10;;
7843;SDS011;3967;48.702;9.326;2024-02-21T03:15:22;5.27;;;2.40;;
7843;SDS011;3967;48.702;9.326;2024-02-21T03:17:49;7.57;;;2.50;;
7843;SDS011;3967;48.702;9.326;2024-02-21T03:20:15;9.50;;;2.67;;
7843;SDS011;3967;48.702;9.326;2024-02-21T03:22:42;5.67;;;2.40;;
7843;SDS011;3967;48.702;9.326;2024-02-21T03:25:09;5.53;;;2.47;;
7843;SDS011;3967;48.702;9.326;2024-02-21T03:27:37;6.50;;;2.67;;
7843;SDS011;3967;48.702;9.326;2024-02-21T03:30:04;6.37;;;2.83;;
7843;SDS011;3967;48.702;9.326;2024-02-21T03:32:31;7.90;;;3.33;;
7843;SDS011;3967;48.702;9.326;2024-02-21T03:34:58;5.77;;;2.93;;
7843;SDS011;3967;48.702;9.326;2024-02-21T03:37:25;5.07;;;2.90;;
7843;SDS011;3967;48.702;9.326;2024-02-21T03:39:52;7.47;;;2.77;;
7843;SDS011;3967;48.702;9.326;2024-02-21T03:42:19;5.70;;;3.20;;
7843;SDS011;3967;48.702;9.326;2024-02-21T03:44:45;9.20;;;3.07;;
7843;SDS011;3967;48.702;9.326;2024-02-21T03:47:12;7.00;;;3.13;;
7843;SDS011;3967;48.702;9.326;2024-02-21T03:49:39;9.83;;;3.03;;
7843;SDS011;3967;48.702;9.326;2024-02-21T03:52:06;4.00;;;2.50;;
7843;SDS011;3967;48.702;9.326;2024-02-21T03:54:34;7.00;;;2.90;;
7843;SDS011;3967;48.702;9.326;2024-02-21T03:57:01;8.20;;;2.87;;
7843;SDS011;3967;48.702;9.326;2024-02-21T03:59:28;9.93;;;2.87;;
7843;SDS011;3967;48.702;9.326;2024-02-21T04:01:55;6.60;;;2.40;;
7843;SDS011;3967;48.702;9.326;2024-02-21T04:04:22;6.57;;;2.93;;
7843;SDS011;3967;48.702;9.326;2024-02-21T04:06:49;4.20;;;2.30;;
7843;SDS011;3967;48.702;9.326;2024-02-21T04:09:16;3.83;;;2.70;;
7843;SDS011;3967;48.702;9.326;2024-02-21T04:11:44;5.67;;;2.90;;
7843;SDS011;3967;48.702;9.326;2024-02-21T04:14:11;6.97;;;2.53;;
7843;SDS011;3967;48.702;9.326;2024-02-21T04:16:38;6.60;;;2.90;;
7843;SDS011;3967;48.702;9.326;2024-02-21T04:19:06;5.17;;;2.57;;
7843;SDS011;3967;48.702;9.326;2024-02-21T04:21:33;6.77;;;2.70;;
7843;SDS011;3967;48.702;9.326;2024-02-21T04:24:00;9.00;;;2.80;;
7843;SDS011;3967;48.702;9.326;2024-02-21T04:26:28;7.30;;;3.10;;
7843;SDS011;3967;48.702;9.326;2024-02-21T04:28:55;9.73;;;3.27;;
7843;SDS011;3967;48.702;9.326;2024-02-21T04:31:22;9.73;;;3.60;;
7843;SDS011;3967;48.702;9.326;2024-02-21T04:33:49;10.00;;;3.30;;
7843;SDS011;3967;48.702;9.326;2024-02-21T04:36:15;9.07;;;3.97;;
7843;SDS011;3967;48.702;9.326;2024-02-21T04:38:42;8.50;;;3.80;;
7843;SDS011;3967;48.702;9.326;2024-02-21T04:41:09;4.57;;;2.63;;
7843;SDS011;3967;48.702;9.326;2024-02-21T04:43:36;6.77;;;3.40;;
7843;SDS011;3967;48.702;9.326;2024-02-21T04:46:02;6.43;;;3.70;;
7843;SDS011;3967;48.702;9.326;2024-02-21T04:48:30;8.83;;;3.97;;
7843;SDS011;3967;48.702;9.326;2024-02-21T04:50:57;7.70;;;3.50;;
7843;SDS011;3967;48.702;9.326;2024-02-21T04:53:23;7.80;;;3.40;;
7843;SDS011;3967;48.702;9.326;2024-02-21T04:55:50;7.90;;;3.60;;
7843;SDS011;3967;48.702;9.326;2024-02-21T04:58:17;8.90;;;3.97;;
7843;SDS011;3967;48.702;9.326;2024-02-21T05:00:44;8.37;;;4.07;;
7843;SDS011;3967;48.702;9.326;2024-02-21T05:03:11;8.50;;;4.20;;
7843;SDS011;3967;48.702;9.326;2024-02-21T05:05:38;12.30;;;4.67;;
7843;SDS011;3967;48.702;9.326;2024-02-21T05:08:05;7.63;;;3.40;;
7843;SDS011;3967;48.702;9.326;2024-02-21T05:10:32;6.67;;;3.10;;
7843;SDS011;3967;48.702;9.326;2024-02-21T05:12:58;6.20;;;3.30;;
7843;SDS011;3967;48.702;9.326;2024-02-21T05:15:25;4.53;;;2.90;;
7843;SDS011;3967;48.702;9.326;2024-02-21T05:17:52;7.53;;;3.30;;
7843;SDS011;3967;48.702;9.326;2024-02-21T05:20:19;8.50;;;3.50;;
7843;SDS011;3967;48.702;9.326;2024-02-21T05:22:46;8.53;;;3.97;;
7843;SDS011;3967;48.702;9.326;2024-02-21T05:25:13;7.87;;;3.40;;
7843;SDS011;3967;48.702;9.326;2024-02-21T05:27:40;8.20;;;3.50;;
7843;SDS011;3967;48.702;9.326;2024-02-21T05:30:07;6.87;;;3.30;;
7843;SDS011;3967;48.702;9.326;2024-02-21T05:32:34;12.00;;;4.70;;
7843;SDS011;3967;48.702;9.326;2024-02-21T05:35:01;5.50;;;2.97;;
7843;SDS011;3967;48.702;9.326;2024-02-21T05:37:28;7.47;;;3.63;;
7843;SDS011;3967;48.702;9.326;2024-02-21T05:39:55;8.43;;;3.97;;
7843;SDS011;3967;48.702;9.326;2024-02-21T05:42:21;8.40;;;3.50;;
7843;SDS011;3967;48.702;9.326;2024-02-21T05:44:48;7.90;;;4.07;;
7843;SDS011;3967;48.702;9.326;2024-02-21T05:47:15;6.27;;;3.80;;
7843;SDS011;3967;48.702;9.326;2024-02-21T05:49:42;6.00;;;3.27;;
7843;SDS011;3967;48.702;9.326;2024-02-21T05:52:09;5.93;;;3.30;;
7843;SDS011;3967;48.702;9.326;2024-02-21T05:54:37;6.07;;;3.57;;
7843;SDS011;3967;48.702;9.326;2024-02-21T05:57:05;18.17;;;7.10;;
7843;SDS011;3967;48.702;9.326;2024-02-21T05:59:33;15.97;;;6.80;;
7843;SDS011;3967;48.702;9.326;2024-02-21T06:02:02;11.03;;;5.90;;
7843;SDS011;3967;48.702;9.326;2024-02-21T06:04:30;7.53;;;3.97;;
7843;SDS011;3967;48.702;9.326;2024-02-21T06:06:57;7.73;;;3.93;;
7843;SDS011;3967;48.702;9.326;2024-02-21T06:09:27;7.07;;;3.97;;
7843;SDS011;3967;48.702;9.326;2024-02-21T06:11:54;7.33;;;3.33;;
7843;SDS011;3967;48.702;9.326;2024-02-21T06:14:21;5.47;;;3.70;;
7843;SDS011;3967;48.702;9.326;2024-02-21T06:16:48;6.57;;;4.10;;
7843;SDS011;3967;48.702;9.326;2024-02-21T06:19:15;8.83;;;3.30;;
7843;SDS011;3967;48.702;9.326;2024-02-21T06:21:42;4.83;;;3.80;;
7843;SDS011;3967;48.702;9.326;2024-02-21T06:24:08;11.00;;;4.47;;
7843;SDS011;3967;48.702;9.326;2024-02-21T06:26:35;11.17;;;4.53;;
7843;SDS011;3967;48.702;9.326;2024-02-21T06:29:02;8.07;;;4.77;;
7843;SDS011;3967;48.702;9.326;2024-02-21T06:31:29;14.23;;;5.70;;
7843;SDS011;3967;48.702;9.326;2024-02-21T06:33:57;8.70;;;5.13;;
7843;SDS011;3967;48.702;9.326;2024-02-21T06:36:24;9.17;;;4.67;;
7843;SDS011;3967;48.702;9.326;2024-02-21T06:38:51;15.13;;;5.53;;
7843;SDS011;3967;48.702;9.326;2024-02-21T06:41:18;10.47;;;5.67;;
7843;SDS011;3967;48.702;9.326;2024-02-21T06:43:46;9.33;;;5.20;;
7843;SDS011;3967;48.702;9.326;2024-02-21T06:46:26;6.93;;;3.97;;
7843;SDS011;3967;48.702;9.326;2024-02-21T06:48:55;9.23;;;5.00;;
7843;SDS011;3967;48.702;9.326;2024-02-21T06:51:23;8.80;;;4.37;;
7843;SDS011;3967;48.702;9.326;2024-02-21T06:53:53;13.10;;;5.00;;
7843;SDS011;3967;48.702;9.326;2024-02-21T06:56:22;9.70;;;4.63;;
7843;SDS011;3967;48.702;9.326;2024-02-21T06:58:53;7.33;;;4.40;;
7843;SDS011;3967;48.702;9.326;2024-02-21T07:01:20;9.07;;;5.23;;
7843;SDS011;3967;48.702;9.326;2024-02-21T07:03:47;11.30;;;4.97;;
7843;SDS011;3967;48.702;9.326;2024-02-21T07:06:14;9.87;;;4.97;;
7843;SDS011;3967;48.702;9.326;2024-02-21T07:08:41;9.03;;;5.40;;
7843;SDS011;3967;48.702;9.326;2024-02-21T07:11:07;9.60;;;5.50;;
7843;SDS011;3967;48.702;9.326;2024-02-21T07:13:34;12.13;;;4.73;;
7843;SDS011;3967;48.702;9.326;2024-02-21T07:16:01;8.97;;;4.00;;
7843;SDS011;3967;48.702;9.326;2024-02-21T07:18:28;7.27;;;3.90;;
7843;SDS011;3967;48.702;9.326;2024-02-21T07:21:00;8.10;;;4.30;;
7843;SDS011;3967;48.702;9.326;2024-02-21T07:23:27;5.83;;;4.50;;
7843;SDS011;3967;48.702;9.326;2024-02-21T07:25:54;9.83;;;4.17;;
7843;SDS011;3967;48.702;9.326;2024-02-21T07:28:21;5.67;;;3.23;;
7843;SDS011;3967;48.702;9.326;2024-02-21T07:30:47;8.70;;;3.80;;
7843;SDS011;3967;48.702;9.326;2024-02-21T07:33:14;9.10;;;3.83;;
7843;SDS011;3967;48.702;9.326;2024-02-21T07:35:41;12.30;;;3.70;;
7843;SDS011;3967;48.702;9.326;2024-02-21T07:38:10;12.60;;;3.40;;
7843;SDS011;3967;48.702;9.326;2024-02-21T07:40:39;8.27;;;3.40;;
7843;SDS011;3967;48.702;9.326;2024-02-21T07:43:06;12.33;;;3.63;;
7843;SDS011;3967;48.702;9.326;2024-02-21T07:45:33;8.43;;;3.50;;
7843;SDS011;3967;48.702;9.326;2024-02-21T07:48:00;9.63;;;3.60;;
7843;SDS011;3967;48.702;9.326;2024-02-21T07:50:26;6.87;;;2.77;;
7843;SDS011;3967;48.702;9.326;2024-02-21T07:52:53;7.40;;;3.00;;
7843;SDS011;3967;48.702;9.326;2024-02-21T07:55:20;6.77;;;2.83;;
7843;SDS011;3967;48.702;9.326;2024-02-21T07:57:47;7.73;;;2.47;;
7843;SDS011;3967;48.702;9.326;2024-02-21T08:00:14;8.23;;;2.87;;
7843;SDS011;3967;48.702;9.326;2024-02-21T08:02:43;9.07;;;3.00;;
7843;SDS011;3967;48.702;9.326;2024-02-21T08:05:10;5.90;;;3.20;;
7843;SDS011;3967;48.702;9.326;2024-02-21T08:07:38;10.43;;;3.30;;
7843;SDS011;3967;48.702;9.326;2024-02-21T08:10:06;5.97;;;2.90;;
7843;SDS011;3967;48.702;9.326;2024-02-21T08:12:34;5.50;;;2.67;;
7843;SDS011;3967;48.702;9.326;2024-02-21T08:15:01;8.30;;;3.10;;
7843;SDS011;3967;48.702;9.326;2024-02-21T08:17:29;10.37;;;2.90;;
7843;SDS011;3967;48.702;9.326;2024-02-21T08:19:56;6.70;;;3.07;;
7843;SDS011;3967;48.702;9.326;2024-02-21T08:22:23;8.20;;;3.17;;
7843;SDS011;3967;48.702;9.326;2024-02-21T08:24:52;6.60;;;3.70;;
7843;SDS011;3967;48.702;9.326;2024-02-21T08:27:19;10.43;;;3.20;;
7843;SDS011;3967;48.702;9.326;2024-02-21T08:29:46;11.00;;;3.60;;
7843;SDS011;3967;48.702;9.326;2024-02-21T08:32:13;6.50;;;3.20;;
7843;SDS011;3967;48.702;9.326;2024-02-21T08:34:40;6.63;;;2.97;;
7843;SDS011;3967;48.702;9.326;2024-02-21T08:37:07;8.03;;;2.40;;
7843;SDS011;3967;48.702;9.326;2024-02-21T08:39:34;5.87;;;2.70;;
7843;SDS011;3967;48.702;9.326;2024-02-21T08:42:01;6.77;;;2.60;;
7843;SDS011;3967;48.702;9.326;2024-02-21T08:44:27;5.57;;;2.43;;
7843;SDS011;3967;48.702;9.326;2024-02-21T08:46:55;5.13;;;2.20;;
7843;SDS011;3967;48.702;9.326;2024-02-21T08:49:23;6.90;;;2.57;;
7843;SDS011;3967;48.702;9.326;2024-02-21T08:51:57;3.10;;;2.23;;
7843;SDS011;3967;48.702;9.326;2024-02-21T08:54:23;4.73;;;2.10;;
7843;SDS011;3967;48.702;9.326;2024-02-21T08:56:50;8.27;;;2.50;;
7843;SDS011;3967;48.702;9.326;2024-02-21T08:59:17;10.27;;;2.37;;
7843;SDS011;3967;48.702;9.326;2024-02-21T09:01:44;6.73;;;2.47;;
7843;SDS011;3967;48.702;9.326;2024-02-21T09:04:11;8.77;;;3.37;;
7843;SDS011;3967;48.702;9.326;2024-02-21T09:06:38;6.50;;;2.37;;
7843;SDS011;3967;48.702;9.326;2024-02-21T09:09:08;5.97;;;2.20;;
7843;SDS011;3967;48.702;9.326;2024-02-21T09:11:36;5.60;;;2.33;;
7843;SDS011;3967;48.702;9.326;2024-02-21T09:14:03;5.77;;;2.67;;
7843;SDS011;3967;48.702;9.326;2024-02-21T09:16:31;6.63;;;2.40;;
7843;SDS011;3967;48.702;9.326;2024-02-21T09:18:58;10.70;;;3.00;;
7843;SDS011;3967;48.702;9.326;2024-02-21T09:21:25;6.90;;;2.20;;
7843;SDS011;3967;48.702;9.326;2024-02-21T09:23:52;6.03;;;2.30;;
7843;SDS011;3967;48.702;9.326;2024-02-21T09:26:22;7.63;;;2.40;;
7843;SDS011;3967;48.702;9.326;2024-02-21T09:28:49;5.27;;;1.50;;
7843;SDS011;3967;48.702;9.326;2024-02-21T09:31:17;5.73;;;1.80;;
7843;SDS011;3967;48.702;9.326;2024-02-21T09:33:44;1.80;;;1.50;;
7843;SDS011;3967;48.702;9.326;2024-02-21T09:36:11;6.30;;;2.10;;
7843;SDS011;3967;48.702;9.326;2024-02-21T09:38:39;4.23;;;1.63;;
7843;SDS011;3967;48.702;9.326;2024-02-21T09:41:20;5.17;;;1.70;;
7843;SDS011;3967;48.702;9.326;2024-02-21T09:43:52;2.87;;;1.93;;
7843;SDS011;3967;48.702;9.326;2024-02-21T09:46:40;6.60;;;1.53;;
7843;SDS011;3967;48.702;9.326;2024-02-21T09:49:31;2.53;;;1.40;;
7843;SDS011;3967;48.702;9.326;2024-02-21T09:52:03;5.97;;;1.60;;
7843;SDS011;3967;48.702;9.326;2024-02-21T09:54:32;5.00;;;1.57;;
7843;SDS011;3967;48.702;9.326;2024-02-21T09:57:00;5.40;;;1.90;;
7843;SDS011;3967;48.702;9.326;2024-02-21T09:59:28;3.87;;;1.73;;
7843;SDS011;3967;48.702;9.326;2024-02-21T10:01:58;4.43;;;1.90;;
7843;SDS011;3967;48.702;9.326;2024-02-21T10:04:28;5.40;;;2.27;;
7843;SDS011;3967;48.702;9.326;2024-02-21T10:06:56;5.33;;;1.80;;
7843;SDS011;3967;48.702;9.326;2024-02-21T10:09:27;7.43;;;2.10;;
7843;SDS011;3967;48.702;9.326;2024-02-21T10:11:56;2.93;;;1.30;;
7843;SDS011;3967;48.702;9.326;2024-02-21T10:14:33;3.37;;;1.47;;
7843;SDS011;3967;48.702;9.326;2024-02-21T10:17:00;8.80;;;1.67;;
7843;SDS011;3967;48.702;9.326;2024-02-21T10:19:27;3.77;;;1.40;;
7843;SDS011;3967;48.702;9.326;2024-02-21T10:22:04;2.70;;;1.10;;
7843;SDS011;3967;48.702;9.326;2024-02-21T10:24:34;6.30;;;1.90;;
7843;SDS011;3967;48.702;9.326;2024-02-21T10:27:07;6.83;;;1.60;;
7843;SDS011;3967;48.702;9.326;2024-02-21T10:29:40;4.73;;;1.20;;
7843;SDS011;3967;48.702;9.326;2024-02-21T10:32:11;3.87;;;1.40;;
7843;SDS011;3967;48.702;9.326;2024-02-21T10:34:40;4.37;;;1.80;;
7843;SDS011;3967;48.702;9.326;2024-02-21T10:37:09;4.67;;;1.93;;
7843;SDS011;3967;48.702;9.326;2024-02-21T10:39:40;4.40;;;1.50;;
7843;SDS011;3967;48.702;9.326;2024-02-21T10:42:10;5.17;;;1.43;;
7843;SDS011;3967;48.702;9.326;2024-02-21T10:44:39;7.57;;;2.00;;
7843;SDS011;3967;48.702;9.326;2024-02-21T10:47:08;4.37;;;1.47;;
7843;SDS011;3967;48.702;9.326;2024-02-21T10:49:38;3.80;;;1.40;;
7843;SDS011;3967;48.702;9.326;2024-02-21T10:54:46;2.43;;;1.10;;
7843;SDS011;3967;48.702;9.326;2024-02-21T10:57:19;4.80;;;1.40;;
7843;SDS011;3967;48.702;9.326;2024-02-21T10:59:48;3.13;;;1.50;;
7843;SDS011;3967;48.702;9.326;2024-02-21T11:02:16;5.73;;;1.80;;
7843;SDS011;3967;48.702;9.326;2024-02-21T11:04:43;4.93;;;1.80;;
7843;SDS011;3967;48.702;9.326;2024-02-21T11:07:12;5.20;;;1.90;;
7843;SDS011;3967;48.702;9.326;2024-02-21T11:09:40;5.50;;;1.60;;
7843;SDS011;3967;48.702;9.326;2024-02-21T11:12:19;3.47;;;1.33;;
7843;SDS011;3967;48.702;9.326;2024-02-21T11:14:47;2.60;;;1.10;;
7843;SDS011;3967;48.702;9.326;2024-02-21T11:17:17;4.23;;;1.33;;
7843;SDS011;3967;48.702;9.326;2024-02-21T11:19:45;4.47;;;1.50;;
7843;SDS011;3967;48.702;9.326;2024-02-21T11:22:18;5.33;;;1.63;;
7843;SDS011;3967;48.702;9.326;2024-02-21T11:24:49;3.60;;;1.10;;
7843;SDS011;3967;48.702;9.326;2024-02-21T11:27:16;2.20;;;1.20;;
7843;SDS011;3967;48.702;9.326;2024-02-21T11:29:55;3.20;;;1.47;;
7843;SDS011;3967;48.702;9.326;2024-02-21T11:32:24;2.83;;;1.13;;
7843;SDS011;3967;48.702;9.326;2024-02-21T11:35:01;3.87;;;1.30;;
7843;SDS011;3967;48.702;9.326;2024-02-21T11:37:34;1.37;;;0.93;;
7843;SDS011;3967;48.702;9.326;2024-02-21T11:40:06;5.17;;;1.60;;
7843;SDS011;3967;48.702;9.326;2024-02-21T11:42:36;3.73;;;1.40;;
7843;SDS011;3967;48.702;9.326;2024-02-21T11:45:03;2.07;;;1.03;;
7843;SDS011;3967;48.702;9.326;2024-02-21T11:47:30;3.93;;;1.20;;
7843;SDS011;3967;48.702;9.326;2024-02-21T11:49:57;4.93;;;1.20;;
7843;SDS011;3967;48.702;9.326;2024-02-21T11:52:25;3.23;;;1.40;;
7843;SDS011;3967;48.702;9.326;2024-02-21T11:54:53;5.43;;;1.43;;
7843;SDS011;3967;48.702;9.326;2024-02-21T11:57:22;2.03;;;1.10;;
7843;SDS011;3967;48.702;9.326;2024-02-21T11:59:50;2.27;;;0.70;;
7843;SDS011;3967;48.702;9.326;2024-02-21T12:02:24;2.03;;;1.10;;
7843;SDS011;3967;48.702;9.326;2024-02-21T12:04:52;3.43;;;1.43;;
7843;SDS011;3967;48.702;9.326;2024-02-21T12:07:21;2.60;;;0.90;;
7843;SDS011;3967;48.702;9.326;2024-02-21T12:09:50;2.13;;;1.30;;
7843;SDS011;3967;48.702;9.326;2024-02-21T12:12:19;2.47;;;0.93;;
7843;SDS011;3967;48.702;9.326;2024-02-21T12:14:46;2.90;;;1.00;;
7843;SDS011;3967;48.702;9.326;2024-02-21T12:17:13;2.33;;;0.87;;
7843;SDS011;3967;48.702;9.326;2024-02-21T12:19:40;2.33;;;0.90;;
7843;SDS011;3967;48.702;9.326;2024-02-21T12:22:07;2.17;;;1.10;;
7843;SDS011;3967;48.702;9.326;2024-02-21T12:24:35;4.90;;;1.60;;
7843;SDS011;3967;48.702;9.326;2024-02-21T12:27:02;3.47;;;1.17;;
7843;SDS011;3967;48.702;9.326;2024-02-21T12:29:30;4.53;;;1.10;;
7843;SDS011;3967;48.702;9.326;2024-02-21T12:31:57;1.63;;;1.00;;
7843;SDS011;3967;48.702;9.326;2024-02-21T12:34:24;4.23;;;1.40;;
7843;SDS011;3967;48.702;9.326;2024-02-21T12:37:08;1.73;;;0.97;;
7843;SDS011;3967;48.702;9.326;2024-02-21T12:39:38;2.73;;;1.03;;
7843;SDS011;3967;48.702;9.326;2024-02-21T12:42:05;3.17;;;1.00;;
7843;SDS011;3967;48.702;9.326;2024-02-21T12:44:31;2.50;;;1.00;;
7843;SDS011;3967;48.702;9.326;2024-02-21T12:46:58;2.23;;;1.10;;
7843;SDS011;3967;48.702;9.326;2024-02-21T12:49:25;2.40;;;0.80;;
7843;SDS011;3967;48.702;9.326;2024-02-21T12:51:55;1.37;;;0.83;;
7843;SDS011;3967;48.702;9.326;2024-02-21T12:54:22;2.83;;;1.03;;
7843;SDS011;3967;48.702;9.326;2024-02-21T12:56:49;3.30;;;1.10;;
7843;SDS011;3967;48.702;9.326;2024-02-21T12:59:16;3.77;;;1.17;;
7843;SDS011;3967;48.702;9.326;2024-02-21T13:01:43;2.13;;;0.97;;
7843;SDS011;3967;48.702;9.326;2024-02-21T13:04:10;2.83;;;0.80;;
7843;SDS011;3967;48.702;9.326;2024-02-21T13:06:38;2.63;;;1.30;;
7843;SDS011;3967;48.702;9.326;2024-02-21T13:09:05;2.43;;;0.80;;
7843;SDS011;3967;48.702;9.326;2024-02-21T13:11:34;2.37;;;0.97;;
7843;SDS011;3967;48.702;9.326;2024-02-21T13:14:01;1.03;;;0.80;;
7843;SDS011;3967;48.702;9.326;2024-02-21T13:16:28;3.13;;;0.80;;
7843;SDS011;3967;48.702;9.326;2024-02-21T13:18:55;2.33;;;0.93;;
7843;SDS011;3967;48.702;9.326;2024-02-21T13:21:22;2.93;;;0.90;;
7843;SDS011;3967;48.702;9.326;2024-02-21T13:23:49;1.13;;;0.60;;
7843;SDS011;3967;48.702;9.326;2024-02-21T13:26:16;1.73;;;0.70;;
7843;SDS011;3967;48.702;9.326;2024-02-21T13:28:43;2.10;;;0.70;;
7843;SDS011;3967;48.702;9.326;2024-02-21T13:31:11;2.83;;;0.73;;
7843;SDS011;3967;48.702;9.326;2024-02-21T13:33:38;2.20;;;0.90;;
7843;SDS011;3967;48.702;9.326;2024-02-21T13:36:05;2.53;;;0.73;;
7843;SDS011;3967;48.702;9.326;2024-02-21T13:38:32;4.10;;;1.20;;
7843;SDS011;3967;48.702;9.326;2024-02-21T13:40:59;1.77;;;0.90;;
7843;SDS011;3967;48.702;9.326;2024-02-21T13:43:27;6.60;;;1.10;;
7843;SDS011;3967;48.702;9.326;2024-02-21T13:45:58;1.87;;;0.70;;
7843;SDS011;3967;48.702;9.326;2024-02-21T13:48:26;1.40;;;0.60;;
7843;SDS011;3967;48.702;9.326;2024-02-21T13:50:55;2.63;;;0.90;;
7843;SDS011;3967;48.702;9.326;2024-02-21T13:53:21;3.23;;;0.87;;
7843;SDS011;3967;48.702;9.326;2024-02-21T13:55:49;2.60;;;0.97;;
7843;SDS011;3967;48.702;9.326;2024-02-21T13:58:16;2.57;;;0.83;;
7843;SDS011;3967;48.702;9.326;2024-02-21T14:00:43;2.43;;;0.77;;
7843;SDS011;3967;48.702;9.326;2024-02-21T14:03:10;2.97;;;0.97;;
7843;SDS011;3967;48.702;9.326;2024-02-21T14:05:37;4.30;;;0.90;;
7843;SDS011;3967;48.702;9.326;2024-02-21T14:08:08;1.43;;;0.80;;
7843;SDS011;3967;48.702;9.326;2024-02-21T14:10:36;1.67;;;0.80;;
7843;SDS011;3967;48.702;9.326;2024-02-21T14:13:03;1.33;;;0.63;;
7843;SDS011;3967;48.702;9.326;2024-02-21T14:15:30;2.03;;;1.00;;
7843;SDS011;3967;48.702;9.326;2024-02-21T14:17:57;0.97;;;0.80;;
7843;SDS011;3967;48.702;9.326;2024-02-21T14:20:24;1.37;;;0.70;;
7843;SDS011;3967;48.702;9.326;2024-02-21T14:22:51;2.00;;;0.77;;
7843;SDS011;3967;48.702;9.326;2024-02-21T14:25:18;2.23;;;0.70;;
7843;SDS011;3967;48.702;9.326;2024-02-21T14:27:45;2.00;;;0.70;;
7843;SDS011;3967;48.702;9.326;2024-02-21T14:30:11;2.00;;;0.63;;
7843;SDS011;3967;48.702;9.326;2024-02-21T14:32:40;1.27;;;0.60;;
7843;SDS011;3967;48.702;9.326;2024-02-21T14:35:10;2.23;;;0.60;;
7843;SDS011;3967;48.702;9.326;2024-02-21T14:37:37;1.43;;;0.80;;
7843;SDS011;3967;48.702;9.326;2024-02-21T14:40:04;3.10;;;0.73;;
7843;SDS011;3967;48.702;9.326;2024-02-21T14:42:32;1.57;;;0.70;;
7843;SDS011;3967;48.702;9.326;2024-02-21T14:44:59;4.07;;;1.07;;
7843;SDS011;3967;48.702;9.326;2024-02-21T14:47:31;1.53;;;0.80;;
7843;SDS011;3967;48.702;9.326;2024-02-21T14:49:59;1.30;;;0.77;;
7843;SDS011;3967;48.702;9.326;2024-02-21T14:52:28;2.43;;;0.83;;
7843;SDS011;3967;48.702;9.326;2024-02-21T14:54:55;2.67;;;1.00;;
7843;SDS011;3967;48.702;9.326;2024-02-21T14:57:22;2.73;;;0.80;;
7843;SDS011;3967;48.702;9.326;2024-02-21T14:59:51;1.60;;;0.83;;
7843;SDS011;3967;48.702;9.326;2024-02-21T15:02:26;4.30;;;0.67;;
7843;SDS011;3967;48.702;9.326;2024-02-21T15:04:54;2.20;;;0.70;;
7843;SDS011;3967;48.702;9.326;2024-02-21T15:07:24;1.20;;;0.80;;
7843;SDS011;3967;48.702;9.326;2024-02-21T15:09:53;2.43;;;1.00;;
7843;SDS011;3967;48.702;9.326;2024-02-21T15:12:20;1.60;;;0.70;;
7843;SDS011;3967;48.702;9.326;2024-02-21T15:14:48;1.43;;;0.70;;
7843;SDS011;3967;48.702;9.326;2024-02-21T15:17:16;4.03;;;1.63;;
7843;SDS011;3967;48.702;9.326;2024-02-21T15:19:43;2.07;;;1.33;;
7843;SDS011;3967;48.702;9.326;2024-02-21T15:22:11;1.50;;;1.00;;